Time;durP1;ratioP1;P1;durP2;ratioP2;P2;SDS_P1;SDS_P2;PMS_P1;PMS_P2;Temp;Humidity;BMP_temperature;BMP_pressure;BME280_temperature;BME280_humidity;BME280_pressure;Samples;Min_cycle;Max_cycle;Signal;HPM_P1;HPM_P2
2022/04/08 00:01:42;;;;;;;2.90;1.37;;;10.40;95.50;;;;;;5091277;28;20496;-72
2022/04/08 00:04:09;;;;;;;1.23;1.00;;;10.30;96.00;;;;;;5089635;28;20949;-72
2022/04/08 00:06:38;;;;;;;1.20;0.90;;;10.30;96.60;;;;;;5091349;28;20506;-72
2022/04/08 00:09:05;;;;;;;1.20;0.90;;;10.20;95.70;;;;;;5091347;28;20489;-72
2022/04/08 00:11:31;;;;;;;1.20;1.00;;;10.30;96.80;;;;;;5091479;28;20487;-72
2022/04/08 00:14:00;;;;;;;1.20;0.90;;;10.30;95.60;;;;;;5093182;28;20513;-72
2022/04/08 00:16:27;;;;;;;1.20;1.00;;;10.20;95.80;;;;;;5095386;28;20518;-72
2022/04/08 00:18:55;;;;;;;1.20;0.97;;;10.20;95.90;;;;;;5095375;28;20456;-72
2022/04/08 00:21:24;;;;;;;1.20;1.00;;;10.10;96.40;;;;;;5095115;28;20454;-72
2022/04/08 00:24:00;;;;;;;1.20;0.90;;;10.20;95.80;;;;;;5095027;28;20450;-72
2022/04/08 00:26:27;;;;;;;1.67;1.20;;;10.20;95.40;;;;;;5094903;28;20483;-72
2022/04/08 00:28:54;;;;;;;1.20;1.00;;;10.20;96.10;;;;;;5094951;28;20448;-72
2022/04/08 00:31:21;;;;;;;1.20;1.00;;;10.20;95.20;;;;;;5094916;28;20491;-72
2022/04/08 00:33:48;;;;;;;1.30;1.00;;;10.20;96.20;;;;;;5095050;28;20484;-72
2022/04/08 00:36:15;;;;;;;1.20;0.90;;;10.10;96.50;;;;;;5094983;28;20997;-72
2022/04/08 00:38:42;;;;;;;1.20;1.00;;;10.10;96.40;;;;;;5094828;28;20479;-72
2022/04/08 00:41:10;;;;;;;1.20;0.90;;;10.20;97.30;;;;;;5094957;28;20933;-71
2022/04/08 00:43:39;;;;;;;1.93;1.17;;;10.10;96.70;;;;;;5094687;28;20550;-72
2022/04/08 00:46:09;;;;;;;1.20;1.00;;;10.10;95.10;;;;;;5094502;28;20560;-71
2022/04/08 00:48:36;;;;;;;1.20;1.10;;;10.10;95.70;;;;;;5094774;28;20458;-71
2022/04/08 00:51:05;;;;;;;1.20;1.00;;;10.00;95.40;;;;;;5094607;28;20543;-72
2022/04/08 00:53:33;;;;;;;1.60;1.37;;;10.00;95.30;;;;;;5094040;28;20444;-72
2022/04/08 00:56:01;;;;;;;1.20;0.90;;;10.00;95.10;;;;;;5094476;28;20518;-72
2022/04/08 00:58:29;;;;;;;1.20;1.00;;;10.00;96.00;;;;;;5093000;28;20499;-72
2022/04/08 01:00:56;;;;;;;1.20;1.00;;;9.90;94.80;;;;;;5094395;28;20458;-71
2022/04/08 01:03:23;;;;;;;1.20;1.03;;;9.90;95.00;;;;;;5094445;28;20455;-72
2022/04/08 01:05:50;;;;;;;2.60;1.80;;;10.00;94.40;;;;;;5094339;28;20569;-72
2022/04/08 01:08:17;;;;;;;1.20;0.90;;;10.00;94.50;;;;;;5094369;28;20531;-72
2022/04/08 01:10:45;;;;;;;1.27;1.07;;;10.00;94.60;;;;;;5094453;28;20451;-72
2022/04/08 01:13:12;;;;;;;1.20;0.90;;;10.00;95.30;;;;;;5094190;28;20953;-72
2022/04/08 01:15:40;;;;;;;1.60;1.30;;;10.00;95.80;;;;;;5093993;28;20524;-71
2022/04/08 01:18:08;;;;;;;1.20;1.00;;;9.90;95.60;;;;;;5093835;28;20452;-71
2022/04/08 01:20:35;;;;;;;2.13;1.97;;;9.90;95.40;;;;;;5094080;28;20448;-72
2022/04/08 01:23:02;;;;;;;1.20;0.90;;;10.00;95.50;;;;;;5093742;28;20510;-72
2022/04/08 01:25:31;;;;;;;1.20;1.00;;;10.00;95.20;;;;;;5093485;28;20960;-72
2022/04/08 01:27:58;;;;;;;1.20;0.90;;;9.90;95.90;;;;;;5093750;28;20506;-72
2022/04/08 01:30:25;;;;;;;1.20;1.00;;;9.90;96.90;;;;;;5093909;28;21289;-72
2022/04/08 01:32:52;;;;;;;1.20;1.00;;;9.80;96.40;;;;;;5093587;28;20486;-72
2022/04/08 01:35:19;;;;;;;1.20;1.00;;;9.80;96.90;;;;;;5093766;28;20504;-72
2022/04/08 01:37:45;;;;;;;1.80;1.10;;;9.80;97.00;;;;;;5093650;28;20516;-72
2022/04/08 01:40:14;;;;;;;1.20;1.00;;;9.70;98.00;;;;;;5093649;28;20966;-72
2022/04/08 01:42:42;;;;;;;1.20;1.00;;;9.80;96.60;;;;;;5093685;28;20884;-72
2022/04/08 01:45:14;;;;;;;1.20;0.90;;;9.80;96.20;;;;;;5093489;28;20964;-72
2022/04/08 01:47:41;;;;;;;1.20;1.10;;;9.90;96.50;;;;;;5093519;28;20571;-72
2022/04/08 01:50:09;;;;;;;1.20;0.90;;;9.90;95.60;;;;;;5093312;28;20451;-72
2022/04/08 01:52:36;;;;;;;1.20;0.90;;;9.90;96.50;;;;;;5093599;28;20463;-72
2022/04/08 01:55:05;;;;;;;1.20;1.00;;;9.90;95.60;;;;;;5093601;28;20523;-72
2022/04/08 01:57:33;;;;;;;1.20;0.90;;;9.80;96.40;;;;;;5093289;28;20456;-72
2022/04/08 02:00:02;;;;;;;1.20;1.00;;;9.80;96.30;;;;;;5093375;28;20459;-72
2022/04/08 02:02:29;;;;;;;1.20;0.90;;;9.80;96.50;;;;;;5093233;28;20513;-72
2022/04/08 02:04:56;;;;;;;1.20;1.00;;;9.70;95.70;;;;;;5093122;28;20870;-72
2022/04/08 02:07:23;;;;;;;1.20;0.93;;;9.80;96.40;;;;;;5092989;28;21020;-71
2022/04/08 02:09:50;;;;;;;1.20;1.00;;;9.80;95.90;;;;;;5091804;28;20964;-71
2022/04/08 02:12:17;;;;;;;1.53;1.30;;;9.90;95.60;;;;;;5093002;28;20549;-72
2022/04/08 02:14:44;;;;;;;1.20;1.00;;;9.80;96.50;;;;;;5092834;28;20454;-71
2022/04/08 02:17:13;;;;;;;1.20;1.00;;;9.90;96.60;;;;;;5092733;28;20527;-70
2022/04/08 02:19:40;;;;;;;1.30;1.00;;;9.90;96.50;;;;;;5092859;28;20548;-70
2022/04/08 02:22:07;;;;;;;1.20;0.90;;;9.80;96.80;;;;;;5092734;28;20957;-71
2022/04/08 02:24:35;;;;;;;1.20;0.90;;;9.80;96.60;;;;;;5092826;28;20454;-71
2022/04/08 02:27:05;;;;;;;1.30;1.00;;;9.80;96.80;;;;;;5092534;28;20516;-70
2022/04/08 02:29:33;;;;;;;1.20;0.90;;;9.70;97.00;;;;;;5092943;28;20482;-71
2022/04/08 02:32:00;;;;;;;1.20;1.00;;;9.70;97.00;;;;;;5092576;28;20990;-71
2022/04/08 02:34:28;;;;;;;1.30;1.07;;;9.60;97.70;;;;;;5092734;28;20491;-71
2022/04/08 02:36:55;;;;;;;1.20;0.90;;;9.70;97.70;;;;;;5090551;28;20540;-71
2022/04/08 02:39:22;;;;;;;1.20;1.00;;;9.70;97.90;;;;;;5092725;28;20504;-71
2022/04/08 02:41:49;;;;;;;1.20;1.00;;;9.70;97.90;;;;;;5092581;28;20523;-71
2022/04/08 02:44:17;;;;;;;1.20;1.00;;;9.70;98.00;;;;;;5092654;28;20454;-72
2022/04/08 02:46:44;;;;;;;1.20;0.90;;;9.60;98.00;;;;;;5092619;28;20904;-72
2022/04/08 02:49:11;;;;;;;1.20;1.00;;;9.50;98.00;;;;;;5092575;28;20507;-71
2022/04/08 02:51:39;;;;;;;1.20;0.90;;;9.50;98.00;;;;;;5092521;28;20499;-72
2022/04/08 02:54:06;;;;;;;1.73;1.43;;;9.50;97.40;;;;;;5090645;28;20558;-71
2022/04/08 02:56:41;;;;;;;1.20;1.00;;;9.40;98.00;;;;;;5092238;28;20458;-71
2022/04/08 02:59:08;;;;;;;1.20;1.00;;;9.50;98.00;;;;;;5092045;28;20965;-71
2022/04/08 03:01:35;;;;;;;1.20;1.00;;;9.40;96.70;;;;;;5092160;28;20477;-71
2022/04/08 03:04:05;;;;;;;1.20;1.00;;;9.50;97.30;;;;;;5091997;28;20463;-71
2022/04/08 03:06:33;;;;;;;1.20;1.00;;;9.50;96.80;;;;;;5090781;28;20519;-71
2022/04/08 03:09:03;;;;;;;1.30;1.20;;;9.50;97.30;;;;;;5091814;28;20491;-70
2022/04/08 03:11:30;;;;;;;1.20;0.97;;;9.40;96.90;;;;;;5090761;28;20457;-72
2022/04/08 03:13:59;;;;;;;1.20;0.93;;;9.40;97.20;;;;;;5091832;28;20980;-72
2022/04/08 03:16:26;;;;;;;1.20;0.90;;;9.40;97.10;;;;;;5090318;28;20462;-71
2022/04/08 03:18:53;;;;;;;1.20;0.90;;;9.50;96.70;;;;;;5091880;28;20453;-72
2022/04/08 03:21:20;;;;;;;1.50;1.10;;;9.50;96.60;;;;;;5091830;28;20540;-71
2022/04/08 03:23:48;;;;;;;1.53;1.17;;;9.50;97.00;;;;;;5091873;28;20464;-71
2022/04/08 03:26:17;;;;;;;1.20;1.00;;;9.40;96.60;;;;;;5091546;28;20484;-71
2022/04/08 03:28:44;;;;;;;1.20;1.00;;;9.40;96.80;;;;;;5092018;28;20489;-71
2022/04/08 03:31:11;;;;;;;1.40;1.27;;;9.40;97.60;;;;;;5092107;28;20845;-72
2022/04/08 03:33:38;;;;;;;1.30;1.10;;;9.30;97.80;;;;;;5091754;28;20449;-71
2022/04/08 03:36:06;;;;;;;1.20;1.00;;;9.30;98.00;;;;;;5092115;28;20457;-71
2022/04/08 03:38:33;;;;;;;1.30;1.23;;;9.20;98.00;;;;;;5091964;28;20957;-71
2022/04/08 03:41:00;;;;;;;1.20;0.90;;;9.20;98.00;;;;;;5090847;28;20477;-71
2022/04/08 03:43:29;;;;;;;2.37;1.20;;;9.20;98.00;;;;;;5091784;28;20492;-71
2022/04/08 03:45:58;;;;;;;1.40;1.17;;;9.20;98.00;;;;;;5091587;28;20460;-71
2022/04/08 03:48:25;;;;;;;1.20;1.00;;;9.20;98.00;;;;;;5093001;28;20528;-71
2022/04/08 03:50:52;;;;;;;1.43;1.00;;;9.10;98.00;;;;;;5095703;28;20486;-71
2022/04/08 03:53:19;;;;;;;1.20;0.90;;;9.20;98.00;;;;;;5094427;28;20452;-71
2022/04/08 03:55:46;;;;;;;1.20;0.90;;;9.20;98.00;;;;;;5095470;28;20821;-71
2022/04/08 03:58:13;;;;;;;1.20;1.00;;;9.00;98.00;;;;;;5095460;28;20455;-71
2022/04/08 04:00:42;;;;;;;1.20;0.90;;;9.00;98.00;;;;;;5095383;28;20486;-71
2022/04/08 04:03:10;;;;;;;1.30;1.10;;;8.90;98.00;;;;;;5095450;28;20443;-71
2022/04/08 04:05:37;;;;;;;1.20;1.00;;;8.90;98.00;;;;;;5095578;28;20460;-71
2022/04/08 04:08:04;;;;;;;1.20;0.97;;;9.00;98.00;;;;;;5095169;28;20477;-71
2022/04/08 04:10:31;;;;;;;1.20;1.17;;;9.00;98.00;;;;;;5095427;28;20462;-71
2022/04/08 04:12:58;;;;;;;1.20;1.00;;;9.10;98.00;;;;;;5095206;28;20474;-72
2022/04/08 04:15:25;;;;;;;1.20;0.90;;;9.10;98.00;;;;;;5095322;28;20876;-71
2022/04/08 04:17:53;;;;;;;1.50;1.10;;;9.10;98.00;;;;;;5095201;28;20487;-71
2022/04/08 04:20:20;;;;;;;1.20;1.00;;;9.10;98.00;;;;;;5093991;28;20827;-71
2022/04/08 04:22:48;;;;;;;1.80;1.20;;;9.10;98.00;;;;;;5093944;28;20892;-71
2022/04/08 04:25:15;;;;;;;1.97;1.37;;;9.00;98.00;;;;;;5095130;28;20542;-71
2022/04/08 04:27:41;;;;;;;1.20;1.00;;;9.10;98.00;;;;;;5095136;28;20577;-71
2022/04/08 04:30:09;;;;;;;1.20;1.00;;;9.10;97.20;;;;;;5095122;28;20448;-71
2022/04/08 04:32:36;;;;;;;1.23;1.00;;;9.10;97.50;;;;;;5095407;28;20530;-71
2022/04/08 04:35:07;;;;;;;1.20;1.00;;;9.00;97.50;;;;;;5095033;28;20527;-71
2022/04/08 04:37:34;;;;;;;1.20;0.90;;;9.00;97.70;;;;;;5094714;28;20460;-71
2022/04/08 04:40:02;;;;;;;1.30;1.10;;;8.90;97.10;;;;;;5094744;28;20475;-71
2022/04/08 04:42:29;;;;;;;1.20;0.90;;;8.90;96.20;;;;;;5094630;28;20470;-71
2022/04/08 04:44:58;;;;;;;1.20;1.00;;;9.00;96.40;;;;;;5093358;28;20492;-71
2022/04/08 04:47:25;;;;;;;1.20;1.00;;;8.90;97.30;;;;;;5094512;28;20476;-71
2022/04/08 04:49:52;;;;;;;1.20;0.97;;;8.80;97.60;;;;;;5094489;28;20540;-71
2022/04/08 04:52:21;;;;;;;1.20;1.00;;;8.90;97.10;;;;;;5094412;28;20487;-71
2022/04/08 04:54:48;;;;;;;1.30;1.00;;;8.90;95.90;;;;;;5093756;28;20493;-71
2022/04/08 04:57:15;;;;;;;1.20;1.00;;;8.90;96.20;;;;;;5093952;28;20483;-72
2022/04/08 04:59:42;;;;;;;1.20;1.10;;;8.90;96.40;;;;;;5093203;28;20536;-72
2022/04/08 05:02:09;;;;;;;1.20;1.10;;;8.90;96.40;;;;;;5094344;28;20536;-71
2022/04/08 05:04:36;;;;;;;1.20;1.10;;;8.90;96.70;;;;;;5093093;28;20487;-71
2022/04/08 05:07:04;;;;;;;1.20;0.90;;;8.90;97.20;;;;;;5093100;28;20520;-70
2022/04/08 05:09:32;;;;;;;1.20;1.00;;;8.80;96.70;;;;;;5094109;28;20463;-71
2022/04/08 05:11:59;;;;;;;1.20;1.10;;;8.90;97.40;;;;;;5094166;28;20490;-71
2022/04/08 05:14:26;;;;;;;1.20;0.90;;;9.00;97.10;;;;;;5093990;28;20453;-71
2022/04/08 05:16:53;;;;;;;1.63;1.20;;;9.00;96.70;;;;;;5094104;28;20499;-70
2022/04/08 05:19:20;;;;;;;1.20;1.00;;;9.00;97.70;;;;;;5093830;28;20544;-71
2022/04/08 05:21:46;;;;;;;1.20;0.90;;;8.90;97.70;;;;;;5094248;28;20546;-71
2022/04/08 05:24:13;;;;;;;1.20;0.97;;;8.90;97.80;;;;;;5094172;28;20820;-70
2022/04/08 05:26:42;;;;;;;1.30;1.10;;;8.80;98.00;;;;;;5094053;28;20478;-71
2022/04/08 05:29:09;;;;;;;2.70;1.20;;;8.90;97.40;;;;;;5093696;28;20991;-71
2022/04/08 05:31:36;;;;;;;1.20;0.90;;;9.00;97.90;;;;;;5093905;28;20494;-71
2022/04/08 05:34:03;;;;;;;1.30;1.00;;;9.00;97.60;;;;;;5093484;28;20998;-71
2022/04/08 05:36:29;;;;;;;1.20;1.00;;;9.00;97.70;;;;;;5093699;28;20886;-70
2022/04/08 05:38:57;;;;;;;1.20;1.03;;;9.10;98.00;;;;;;5093540;28;20482;-71
2022/04/08 05:41:24;;;;;;;1.80;1.20;;;9.20;98.00;;;;;;5093351;28;20458;-72
2022/04/08 05:43:53;;;;;;;1.20;1.00;;;9.40;97.60;;;;;;5093385;28;20456;-72
2022/04/08 05:46:20;;;;;;;1.30;1.20;;;9.40;97.40;;;;;;5093519;28;20463;-72
2022/04/08 05:48:52;;;;;;;5.03;1.90;;;9.20;97.80;;;;;;5093295;28;20525;-72
2022/04/08 05:51:19;;;;;;;1.20;1.00;;;9.20;98.00;;;;;;5093604;28;20993;-72
2022/04/08 05:53:46;;;;;;;1.30;1.00;;;9.10;98.00;;;;;;5092115;28;20546;-72
2022/04/08 05:56:13;;;;;;;1.20;1.10;;;9.10;98.00;;;;;;5093341;28;20500;-72
2022/04/08 05:58:40;;;;;;;1.20;0.90;;;9.10;98.00;;;;;;5092921;28;20794;-72
2022/04/08 06:01:09;;;;;;;1.20;1.00;;;9.20;98.00;;;;;;5093277;28;20548;-71
2022/04/08 06:03:36;;;;;;;1.20;0.90;;;9.30;98.00;;;;;;5093237;28;20513;-72
2022/04/08 06:06:04;;;;;;;1.20;0.90;;;9.40;98.00;;;;;;5093191;28;20495;-72
2022/04/08 06:08:31;;;;;;;1.20;1.00;;;9.50;98.00;;;;;;5092909;28;20483;-71
2022/04/08 06:11:01;;;;;;;1.20;1.00;;;9.60;98.00;;;;;;5092054;28;20492;-71
2022/04/08 06:13:28;;;;;;;1.20;1.10;;;9.60;97.80;;;;;;5092057;28;20461;-72
2022/04/08 06:15:56;;;;;;;1.63;1.40;;;9.50;98.00;;;;;;5093003;28;20549;-71
2022/04/08 06:18:24;;;;;;;1.20;0.90;;;9.40;98.00;;;;;;5092929;28;20499;-71
2022/04/08 06:20:51;;;;;;;1.20;1.03;;;9.40;98.00;;;;;;5091493;28;20943;-72
2022/04/08 06:23:18;;;;;;;1.20;1.00;;;9.30;98.00;;;;;;5092705;28;20895;-71
2022/04/08 06:25:45;;;;;;;1.20;1.00;;;9.30;98.00;;;;;;5091387;28;20495;-71
2022/04/08 06:28:15;;;;;;;1.20;1.10;;;9.30;98.00;;;;;;5092599;28;20604;-72
2022/04/08 06:30:42;;;;;;;1.30;1.00;;;9.20;98.00;;;;;;5092629;28;20448;-72
2022/04/08 06:33:10;;;;;;;1.20;0.90;;;9.10;98.00;;;;;;5092478;28;20455;-72
2022/04/08 06:35:39;;;;;;;1.40;1.00;;;9.10;98.00;;;;;;5092540;28;20459;-71
2022/04/08 06:38:07;;;;;;;1.20;0.97;;;9.10;98.00;;;;;;5092500;28;20520;-71
2022/04/08 06:40:37;;;;;;;1.20;0.90;;;9.20;98.00;;;;;;5092492;28;20485;-71
2022/04/08 06:43:05;;;;;;;1.20;0.90;;;9.20;98.00;;;;;;5092251;28;20457;-71
2022/04/08 06:45:33;;;;;;;1.20;1.00;;;9.30;98.00;;;;;;5092511;28;20455;-72
2022/04/08 06:48:00;;;;;;;1.20;0.90;;;9.30;98.00;;;;;;5091430;28;20577;-71
2022/04/08 06:50:29;;;;;;;1.20;1.00;;;9.20;98.00;;;;;;5091858;28;20444;-72
2022/04/08 06:53:00;;;;;;;1.20;0.93;;;9.20;98.00;;;;;;5092286;28;20450;-71
2022/04/08 06:55:27;;;;;;;1.20;1.00;;;9.10;98.00;;;;;;5092270;28;20489;-70
2022/04/08 06:57:54;;;;;;;1.20;1.00;;;9.10;98.00;;;;;;5087111;28;20466;-71
2022/04/08 07:00:23;;;;;;;1.20;1.03;;;9.20;98.00;;;;;;5089728;28;20456;-71
2022/04/08 07:02:50;;;;;;;1.20;1.00;;;9.10;98.00;;;;;;5089231;28;20461;-70
2022/04/08 07:05:16;;;;;;;1.20;1.00;;;9.10;98.00;;;;;;5089439;28;20454;-71
2022/04/08 07:07:45;;;;;;;1.20;0.90;;;9.20;98.00;;;;;;5088793;28;20582;-71
2022/04/08 07:10:15;;;;;;;1.30;1.00;;;9.20;98.00;;;;;;5089101;28;20530;-70
2022/04/08 07:12:41;;;;;;;1.20;1.00;;;9.10;98.00;;;;;;5088766;28;20544;-71
2022/04/08 07:15:09;;;;;;;1.20;1.00;;;9.10;98.00;;;;;;5089163;28;20538;-72
2022/04/08 07:17:38;;;;;;;1.20;0.90;;;8.90;98.00;;;;;;5089029;28;21094;-71
2022/04/08 07:20:06;;;;;;;1.50;1.23;;;8.90;98.00;;;;;;5088851;28;20506;-71
2022/04/08 07:22:33;;;;;;;1.30;1.10;;;8.80;98.00;;;;;;5088506;28;20534;-70
2022/04/08 07:25:00;;;;;;;1.20;1.00;;;8.70;98.00;;;;;;5089092;28;20457;-70
2022/04/08 07:27:29;;;;;;;1.20;1.00;;;8.60;98.00;;;;;;5088808;28;20565;-70
2022/04/08 07:29:56;;;;;;;1.20;1.00;;;8.50;98.00;;;;;;5089074;28;20456;-70
2022/04/08 07:32:24;;;;;;;1.20;0.90;;;8.40;98.00;;;;;;5088995;28;20536;-70
2022/04/08 07:34:52;;;;;;;1.40;1.30;;;8.50;98.00;;;;;;5087669;28;20531;-71
2022/04/08 07:37:30;;;;;;;1.20;0.90;;;8.30;98.00;;;;;;5089086;28;20888;-70
2022/04/08 07:39:58;;;;;;;1.20;1.00;;;8.50;98.00;;;;;;5087854;28;20466;-70
2022/04/08 07:42:26;;;;;;;1.20;1.00;;;8.50;98.00;;;;;;5089071;28;20452;-71
2022/04/08 07:44:54;;;;;;;1.40;1.30;;;8.50;98.00;;;;;;5087690;28;20508;-71
2022/04/08 07:47:22;;;;;;;1.20;1.00;;;8.40;98.00;;;;;;5089059;28;20547;-72
2022/04/08 07:49:49;;;;;;;1.20;1.00;;;8.30;98.00;;;;;;5086772;28;20449;-72
2022/04/08 07:52:16;;;;;;;1.20;1.00;;;8.30;98.00;;;;;;5089099;28;20964;-70
2022/04/08 07:54:45;;;;;;;1.20;0.90;;;8.30;98.00;;;;;;5088657;28;20484;-70
2022/04/08 07:57:14;;;;;;;1.20;1.00;;;8.40;98.00;;;;;;5087799;28;20968;-72
2022/04/08 07:59:41;;;;;;;1.20;1.00;;;8.40;98.00;;;;;;5088956;28;20485;-71
2022/04/08 08:02:10;;;;;;;1.20;1.00;;;8.40;98.00;;;;;;5089269;28;20452;-70
2022/04/08 08:04:37;;;;;;;1.20;0.90;;;8.30;98.00;;;;;;5088254;28;20863;-71
2022/04/08 08:07:04;;;;;;;1.77;1.33;;;8.30;98.00;;;;;;5088852;28;20483;-70
2022/04/08 08:09:32;;;;;;;1.20;1.00;;;8.30;98.00;;;;;;5088326;28;20608;-70
2022/04/08 08:11:59;;;;;;;1.20;0.93;;;8.30;98.00;;;;;;5088695;28;20530;-70
2022/04/08 08:14:26;;;;;;;1.20;1.00;;;8.20;98.00;;;;;;5088385;28;20482;-70
2022/04/08 08:16:54;;;;;;;1.20;0.90;;;8.30;98.00;;;;;;5088333;28;21010;-70
2022/04/08 08:19:23;;;;;;;1.20;1.00;;;8.40;98.00;;;;;;5088348;28;20447;-69
2022/04/08 08:21:51;;;;;;;1.20;0.90;;;8.40;98.00;;;;;;5088167;28;20537;-69
2022/04/08 08:24:17;;;;;;;1.87;1.30;;;8.40;98.00;;;;;;5088717;28;20451;-70
2022/04/08 08:26:44;;;;;;;1.63;1.20;;;8.60;98.00;;;;;;5088485;28;20526;-70
2022/04/08 08:29:11;;;;;;;1.20;0.90;;;8.70;98.00;;;;;;5088785;28;20895;-70
2022/04/08 08:31:38;;;;;;;1.20;1.00;;;9.00;98.00;;;;;;5088619;28;20508;-71
2022/04/08 08:34:05;;;;;;;1.20;0.90;;;9.10;98.00;;;;;;5088568;28;20488;-71
2022/04/08 08:36:36;;;;;;;1.20;1.00;;;9.10;98.00;;;;;;5092345;28;20529;-70
2022/04/08 08:39:03;;;;;;;1.20;1.00;;;9.20;98.00;;;;;;5092190;28;20490;-70
2022/04/08 08:41:32;;;;;;;1.20;1.00;;;9.10;98.00;;;;;;5091881;28;20588;-71
2022/04/08 08:43:59;;;;;;;1.30;1.03;;;9.00;98.00;;;;;;5092176;28;20649;-72
2022/04/08 08:46:27;;;;;;;1.20;0.90;;;8.90;98.00;;;;;;5092288;28;20489;-72
2022/04/08 08:48:57;;;;;;;1.20;0.90;;;8.80;98.00;;;;;;5091978;28;20543;-71
2022/04/08 08:51:24;;;;;;;1.20;0.90;;;8.80;98.00;;;;;;5089770;28;20817;-73
2022/04/08 08:53:54;;;;;;;1.20;0.97;;;8.70;98.00;;;;;;5091731;28;20535;-71
2022/04/08 08:56:25;;;;;;;1.30;1.20;;;8.70;98.00;;;;;;5090343;28;21097;-72
2022/04/08 08:58:52;;;;;;;1.20;0.90;;;8.60;98.00;;;;;;5091449;28;21119;-72
2022/04/08 09:01:20;;;;;;;1.20;0.90;;;8.70;98.00;;;;;;5091546;28;20531;-71
2022/04/08 09:03:47;;;;;;;1.20;1.00;;;8.80;98.00;;;;;;5091316;28;20996;-72
2022/04/08 09:06:16;;;;;;;1.20;1.00;;;8.80;98.00;;;;;;5091220;28;20458;-71
2022/04/08 09:08:44;;;;;;;1.47;1.30;;;8.90;98.00;;;;;;5091541;28;20485;-71
2022/04/08 09:11:12;;;;;;;1.20;1.00;;;9.00;98.00;;;;;;5091450;28;20455;-70
2022/04/08 09:13:49;;;;;;;1.20;0.90;;;9.10;98.00;;;;;;5091179;28;20476;-69
2022/04/08 09:16:25;;;;;;;1.20;0.93;;;9.10;98.00;;;;;;5091253;28;20466;-70
2022/04/08 09:18:54;;;;;;;1.20;1.00;;;9.10;98.00;;;;;;5091308;28;20460;-71
2022/04/08 09:21:24;;;;;;;1.20;1.00;;;9.10;98.00;;;;;;5091523;28;20446;-70
2022/04/08 09:23:52;;;;;;;1.20;1.00;;;9.10;98.00;;;;;;5091211;28;20513;-70
2022/04/08 09:26:20;;;;;;;1.20;1.00;;;9.10;98.00;;;;;;5091334;28;20955;-72
2022/04/08 09:28:47;;;;;;;1.20;1.00;;;9.20;98.00;;;;;;5091090;28;20530;-71
2022/04/08 09:31:19;;;;;;;1.20;1.00;;;9.30;98.00;;;;;;5091387;28;20801;-70
2022/04/08 09:33:50;;;;;;;1.80;1.00;;;9.30;98.00;;;;;;5091107;28;20456;-70
2022/04/08 09:36:27;;;;;;;1.20;0.93;;;9.40;98.00;;;;;;5091297;28;20463;-71
2022/04/08 09:38:54;;;;;;;1.20;0.90;;;9.50;98.00;;;;;;5091287;28;20455;-69
2022/04/08 09:41:37;;;;;;;1.20;1.03;;;9.50;98.00;;;;;;5090974;28;20518;-68
2022/04/08 09:44:07;;;;;;;1.20;1.00;;;9.50;98.00;;;;;;5083872;28;20486;-73
2022/04/08 09:46:35;;;;;;;1.20;0.90;;;9.40;98.00;;;;;;5090799;28;20553;-72
2022/04/08 09:49:02;;;;;;;1.20;1.00;;;9.40;98.00;;;;;;5090824;28;20561;-72
2022/04/08 09:51:30;;;;;;;1.40;1.10;;;9.30;98.00;;;;;;5088619;28;20544;-71
2022/04/08 09:53:58;;;;;;;1.20;1.10;;;9.20;98.00;;;;;;5090758;28;21159;-72
2022/04/08 09:56:28;;;;;;;1.20;1.00;;;9.30;98.00;;;;;;5089586;28;20497;-72
2022/04/08 09:58:58;;;;;;;1.20;1.00;;;9.20;98.00;;;;;;5090511;28;20491;-72
2022/04/08 10:01:28;;;;;;;1.20;0.90;;;9.20;98.00;;;;;;5090446;28;20512;-73
2022/04/08 10:03:55;;;;;;;1.20;0.90;;;9.10;98.00;;;;;;5090322;28;20833;-73
2022/04/08 10:06:23;;;;;;;1.20;1.00;;;9.10;98.00;;;;;;5089134;28;20540;-70
2022/04/08 10:08:50;;;;;;;1.20;0.90;;;9.10;98.00;;;;;;5090196;28;20921;-72
2022/04/08 10:11:25;;;;;;;1.20;0.97;;;9.10;98.00;;;;;;5090157;28;20451;-71
2022/04/08 10:14:14;;;;;;;1.20;1.00;;;9.00;98.00;;;;;;5089655;28;21203;-71
2022/04/08 10:16:42;;;;;;;1.20;1.10;;;9.20;98.00;;;;;;5089288;28;20457;-71
2022/04/08 10:19:11;;;;;;;1.20;0.90;;;9.30;98.00;;;;;;5089443;28;20486;-72
2022/04/08 10:21:40;;;;;;;1.20;0.90;;;9.30;98.00;;;;;;5089893;28;20514;-72
2022/04/08 10:24:13;;;;;;;1.20;0.90;;;9.50;98.00;;;;;;5090096;28;20877;-72
2022/04/08 10:26:56;;;;;;;1.20;1.00;;;9.30;98.00;;;;;;5090289;28;20535;-72
2022/04/08 10:29:25;;;;;;;1.20;1.00;;;9.30;98.00;;;;;;5089744;28;20984;-73
2022/04/08 10:31:56;;;;;;;1.20;1.00;;;9.30;98.00;;;;;;5089952;28;20526;-72
2022/04/08 10:34:24;;;;;;;1.20;1.00;;;9.40;98.00;;;;;;5090158;28;20471;-72
2022/04/08 10:36:52;;;;;;;1.20;1.00;;;9.50;98.00;;;;;;5090073;28;20457;-72
2022/04/08 10:39:21;;;;;;;1.20;0.90;;;9.60;98.00;;;;;;5090297;28;20466;-71
2022/04/08 10:41:49;;;;;;;1.40;1.20;;;9.60;98.00;;;;;;5090080;28;21010;-72
2022/04/08 10:44:18;;;;;;;1.20;0.93;;;9.60;98.00;;;;;;5089929;28;20457;-71
2022/04/08 10:46:53;;;;;;;1.20;1.07;;;9.60;98.00;;;;;;5089790;28;20509;-69
2022/04/08 10:49:21;;;;;;;1.20;1.00;;;9.50;98.00;;;;;;5087511;28;20574;-70
2022/04/08 10:51:49;;;;;;;1.20;1.10;;;9.60;98.00;;;;;;5089802;28;20499;-70
2022/04/08 10:54:17;;;;;;;1.20;0.90;;;9.60;98.00;;;;;;5089872;28;20527;-69
2022/04/08 10:56:44;;;;;;;1.20;1.00;;;9.60;98.00;;;;;;5087979;28;20943;-71
2022/04/08 10:59:12;;;;;;;1.20;1.00;;;9.50;98.00;;;;;;5089524;28;20496;-70
2022/04/08 11:01:46;;;;;;;1.20;0.97;;;9.50;98.00;;;;;;5089641;28;20811;-70
2022/04/08 11:04:18;;;;;;;1.20;1.00;;;9.40;98.00;;;;;;5089247;28;20549;-70
2022/04/08 11:06:46;;;;;;;1.20;0.90;;;9.30;98.00;;;;;;5081366;28;20491;-70
2022/04/08 11:09:14;;;;;;;1.20;0.97;;;9.20;98.00;;;;;;5089368;28;20490;-71
2022/04/08 11:11:42;;;;;;;1.20;0.90;;;9.30;98.00;;;;;;5081361;28;20498;-71
2022/04/08 11:14:10;;;;;;;1.50;1.07;;;9.30;98.00;;;;;;5088131;28;20455;-71
2022/04/08 11:16:39;;;;;;;1.20;0.90;;;9.20;98.00;;;;;;5088911;28;20455;-72
2022/04/08 11:19:07;;;;;;;1.20;1.00;;;9.20;98.00;;;;;;5089421;28;20841;-70
2022/04/08 11:21:37;;;;;;;1.30;1.10;;;9.10;98.00;;;;;;5089558;28;20485;-71
2022/04/08 11:24:06;;;;;;;1.20;1.00;;;8.90;98.00;;;;;;5089345;28;20532;-71
2022/04/08 11:26:41;;;;;;;1.20;1.00;;;8.90;98.00;;;;;;5089270;28;20478;-70
2022/04/08 11:29:14;;;;;;;1.70;1.17;;;8.90;98.00;;;;;;5089381;28;20574;-68
2022/04/08 11:31:41;;;;;;;1.20;0.90;;;8.90;98.00;;;;;;5089320;28;20550;-69
2022/04/08 11:34:08;;;;;;;1.20;0.97;;;8.90;98.00;;;;;;5089126;28;20476;-69
2022/04/08 11:36:37;;;;;;;1.27;1.03;;;9.00;98.00;;;;;;5089000;28;20883;-68
2022/04/08 11:39:05;;;;;;;1.20;0.90;;;9.10;98.00;;;;;;5088882;28;20485;-69
2022/04/08 11:41:32;;;;;;;1.20;0.90;;;9.00;98.00;;;;;;5088989;28;20519;-69
2022/04/08 11:43:59;;;;;;;1.53;1.10;;;8.90;98.00;;;;;;5088655;28;21562;-69
2022/04/08 11:46:26;;;;;;;1.20;0.90;;;8.70;98.00;;;;;;5088771;28;20508;-68
2022/04/08 11:48:53;;;;;;;1.40;1.10;;;8.70;98.00;;;;;;5088767;28;21103;-68
2022/04/08 11:51:21;;;;;;;1.20;1.00;;;8.60;98.00;;;;;;5086438;28;20494;-71
2022/04/08 11:53:51;;;;;;;1.20;1.00;;;8.60;98.00;;;;;;5088812;28;20948;-68
2022/04/08 11:56:24;;;;;;;1.20;0.90;;;8.60;98.00;;;;;;5088506;28;20512;-69
2022/04/08 11:58:59;;;;;;;1.40;1.23;;;8.50;98.00;;;;;;5087089;28;20471;-70
2022/04/08 12:01:29;;;;;;;1.23;1.03;;;8.60;98.00;;;;;;5088998;28;20547;-70
2022/04/08 12:04:00;;;;;;;1.20;0.93;;;8.70;98.00;;;;;;5088928;28;20445;-71
2022/04/08 12:06:35;;;;;;;1.20;0.90;;;8.60;98.00;;;;;;5088703;28;20465;-70
2022/04/08 12:09:04;;;;;;;1.20;1.00;;;8.60;98.00;;;;;;5090318;28;20477;-70
2022/04/08 12:11:34;;;;;;;3.20;1.10;;;8.70;98.00;;;;;;5092622;28;20448;-70
2022/04/08 12:14:01;;;;;;;1.20;1.00;;;8.70;98.00;;;;;;5092765;28;20459;-70
2022/04/08 12:16:31;;;;;;;1.20;1.13;;;8.90;98.00;;;;;;5092884;28;20494;-69
2022/04/08 12:18:58;;;;;;;1.20;1.10;;;8.80;98.00;;;;;;5092665;28;20446;-69
2022/04/08 12:21:26;;;;;;;1.20;1.00;;;8.80;98.00;;;;;;5092709;28;20473;-69
2022/04/08 12:23:55;;;;;;;1.17;0.90;;;8.70;98.00;;;;;;5092538;28;20861;-69
2022/04/08 12:26:28;;;;;;;1.20;1.00;;;8.60;98.00;;;;;;5092747;28;20458;-69
2022/04/08 12:29:08;;;;;;;1.20;0.90;;;8.70;98.00;;;;;;5092293;28;20496;-69
2022/04/08 12:31:35;;;;;;;1.10;0.90;;;8.60;98.00;;;;;;5092172;28;20454;-68
2022/04/08 12:34:02;;;;;;;1.20;1.00;;;8.60;98.00;;;;;;5091977;28;20444;-69
2022/04/08 12:36:29;;;;;;;1.10;0.90;;;8.50;98.00;;;;;;5092292;28;20455;-70
2022/04/08 12:38:56;;;;;;;1.30;1.10;;;8.60;98.00;;;;;;5092540;28;20441;-69
2022/04/08 12:41:27;;;;;;;1.30;1.10;;;8.80;98.00;;;;;;5092483;28;20481;-70
2022/04/08 12:43:57;;;;;;;4.03;1.17;;;8.90;98.00;;;;;;5091908;28;20543;-69
2022/04/08 12:46:24;;;;;;;1.20;1.00;;;8.80;98.00;;;;;;5091907;28;20457;-69
2022/04/08 12:48:51;;;;;;;1.23;1.00;;;8.80;98.00;;;;;;5091919;28;20512;-69
2022/04/08 12:51:18;;;;;;;1.20;0.90;;;8.80;98.00;;;;;;5090213;28;21166;-69
2022/04/08 12:53:45;;;;;;;1.20;1.10;;;9.00;98.00;;;;;;5091831;28;20531;-67
2022/04/08 12:56:12;;;;;;;1.20;1.00;;;9.10;98.00;;;;;;5091895;28;20542;-68
2022/04/08 12:58:41;;;;;;;1.20;1.10;;;9.10;98.00;;;;;;5090610;28;20453;-69
2022/04/08 13:01:08;;;;;;;1.20;1.00;;;9.00;98.00;;;;;;5091708;28;20512;-69